sensor_id;sensor_type;location;lat;lon;timestamp;temperature;humidity
22132;DHT22;11232;51.748;19.390;2023-12-22T00:02:20;4.50;99.90
22132;DHT22;11232;51.748;19.390;2023-12-22T00:04:46;4.50;99.90
22132;DHT22;11232;51.748;19.390;2023-12-22T00:07:12;4.90;99.90
22132;DHT22;11232;51.748;19.390;2023-12-22T00:09:37;5.00;99.90
22132;DHT22;11232;51.748;19.390;2023-12-22T00:12:03;4.50;99.90
22132;DHT22;11232;51.748;19.390;2023-12-22T00:14:29;5.00;99.90
22132;DHT22;11232;51.748;19.390;2023-12-22T00:16:54;4.60;99.90
22132;DHT22;11232;51.748;19.390;2023-12-22T00:19:20;4.20;99.90
22132;DHT22;11232;51.748;19.390;2023-12-22T00:21:46;5.30;99.90
22132;DHT22;11232;51.748;19.390;2023-12-22T00:24:11;4.10;99.90
22132;DHT22;11232;51.748;19.390;2023-12-22T00:26:37;4.20;99.90
22132;DHT22;11232;51.748;19.390;2023-12-22T00:29:02;3.90;99.90
22132;DHT22;11232;51.748;19.390;2023-12-22T00:31:28;6.90;99.90
22132;DHT22;11232;51.748;19.390;2023-12-22T00:33:53;6.20;99.90
22132;DHT22;11232;51.748;19.390;2023-12-22T00:36:19;3.50;99.90
22132;DHT22;11232;51.748;19.390;2023-12-22T00:38:48;4.30;99.90
22132;DHT22;11232;51.748;19.390;2023-12-22T00:41:14;4.20;99.90
22132;DHT22;11232;51.748;19.390;2023-12-22T00:43:42;4.10;99.90
22132;DHT22;11232;51.748;19.390;2023-12-22T00:46:08;4.60;99.90
22132;DHT22;11232;51.748;19.390;2023-12-22T00:48:33;3.60;99.90
22132;DHT22;11232;51.748;19.390;2023-12-22T00:50:59;4.90;99.90
22132;DHT22;11232;51.748;19.390;2023-12-22T00:53:25;4.30;99.90
22132;DHT22;11232;51.748;19.390;2023-12-22T00:55:50;3.90;99.90
22132;DHT22;11232;51.748;19.390;2023-12-22T00:58:16;5.20;99.90
22132;DHT22;11232;51.748;19.390;2023-12-22T01:00:42;3.90;99.90
22132;DHT22;11232;51.748;19.390;2023-12-22T01:03:07;3.90;99.90
22132;DHT22;11232;51.748;19.390;2023-12-22T01:05:33;5.00;99.90
22132;DHT22;11232;51.748;19.390;2023-12-22T01:07:58;3.90;99.90
22132;DHT22;11232;51.748;19.390;2023-12-22T01:10:24;3.70;99.90
22132;DHT22;11232;51.748;19.390;2023-12-22T01:12:49;5.20;99.90
22132;DHT22;11232;51.748;19.390;2023-12-22T01:15:15;4.10;99.90
22132;DHT22;11232;51.748;19.390;2023-12-22T01:17:41;4.30;99.90
22132;DHT22;11232;51.748;19.390;2023-12-22T01:20:06;3.40;99.90
22132;DHT22;11232;51.748;19.390;2023-12-22T01:22:32;4.20;99.90
22132;DHT22;11232;51.748;19.390;2023-12-22T01:24:59;5.80;99.90
22132;DHT22;11232;51.748;19.390;2023-12-22T01:27:25;5.30;99.90
22132;DHT22;11232;51.748;19.390;2023-12-22T01:29:50;4.30;99.90
22132;DHT22;11232;51.748;19.390;2023-12-22T01:32:16;4.00;99.90
22132;DHT22;11232;51.748;19.390;2023-12-22T01:34:41;5.90;99.90
22132;DHT22;11232;51.748;19.390;2023-12-22T01:37:08;3.80;99.90
22132;DHT22;11232;51.748;19.390;2023-12-22T01:39:34;4.30;99.90
22132;DHT22;11232;51.748;19.390;2023-12-22T01:41:59;3.80;99.90
22132;DHT22;11232;51.748;19.390;2023-12-22T01:44:25;5.20;99.90
22132;DHT22;11232;51.748;19.390;2023-12-22T01:46:51;4.60;99.90
22132;DHT22;11232;51.748;19.390;2023-12-22T01:49:17;6.10;99.90
22132;DHT22;11232;51.748;19.390;2023-12-22T01:51:43;4.10;99.90
22132;DHT22;11232;51.748;19.390;2023-12-22T01:54:09;3.80;99.90
22132;DHT22;11232;51.748;19.390;2023-12-22T01:56:35;3.60;99.90
22132;DHT22;11232;51.748;19.390;2023-12-22T01:59:01;3.50;99.90
22132;DHT22;11232;51.748;19.390;2023-12-22T02:01:28;3.90;99.90
22132;DHT22;11232;51.748;19.390;2023-12-22T02:03:54;3.70;99.90
22132;DHT22;11232;51.748;19.390;2023-12-22T02:06:21;3.80;99.90
22132;DHT22;11232;51.748;19.390;2023-12-22T02:08:47;3.90;99.90
22132;DHT22;11232;51.748;19.390;2023-12-22T02:11:14;4.10;99.90
22132;DHT22;11232;51.748;19.390;2023-12-22T02:13:40;5.00;99.90
22132;DHT22;11232;51.748;19.390;2023-12-22T02:16:16;4.30;99.90
22132;DHT22;11232;51.748;19.390;2023-12-22T02:18:47;3.60;99.90
22132;DHT22;11232;51.748;19.390;2023-12-22T02:21:14;3.80;99.90
22132;DHT22;11232;51.748;19.390;2023-12-22T02:23:40;4.30;99.90
22132;DHT22;11232;51.748;19.390;2023-12-22T02:26:50;4.40;99.90
22132;DHT22;11232;51.748;19.390;2023-12-22T02:28:57;4.40;99.90
22132;DHT22;11232;51.748;19.390;2023-12-22T02:31:36;4.70;99.90
22132;DHT22;11232;51.748;19.390;2023-12-22T02:34:05;4.40;99.90
22132;DHT22;11232;51.748;19.390;2023-12-22T02:36:35;4.00;99.90
22132;DHT22;11232;51.748;19.390;2023-12-22T02:39:02;5.30;99.90
22132;DHT22;11232;51.748;19.390;2023-12-22T02:41:28;4.40;99.90
22132;DHT22;11232;51.748;19.390;2023-12-22T02:43:54;4.50;99.90
22132;DHT22;11232;51.748;19.390;2023-12-22T02:46:19;4.90;99.90
22132;DHT22;11232;51.748;19.390;2023-12-22T02:48:45;3.90;99.90
22132;DHT22;11232;51.748;19.390;2023-12-22T02:51:11;3.80;99.90
22132;DHT22;11232;51.748;19.390;2023-12-22T02:53:36;4.40;99.90
22132;DHT22;11232;51.748;19.390;2023-12-22T02:56:02;5.70;99.90
22132;DHT22;11232;51.748;19.390;2023-12-22T02:58:28;4.40;99.90
22132;DHT22;11232;51.748;19.390;2023-12-22T03:00:53;4.00;99.90
22132;DHT22;11232;51.748;19.390;2023-12-22T03:03:19;4.00;99.90
22132;DHT22;11232;51.748;19.390;2023-12-22T03:05:44;5.60;99.90
22132;DHT22;11232;51.748;19.390;2023-12-22T03:08:10;4.00;99.90
22132;DHT22;11232;51.748;19.390;2023-12-22T03:10:35;5.00;99.90
22132;DHT22;11232;51.748;19.390;2023-12-22T03:13:01;3.90;99.90
22132;DHT22;11232;51.748;19.390;2023-12-22T03:15:26;4.40;99.90
22132;DHT22;11232;51.748;19.390;2023-12-22T03:17:52;4.30;99.90
22132;DHT22;11232;51.748;19.390;2023-12-22T03:20:18;4.10;99.90
22132;DHT22;11232;51.748;19.390;2023-12-22T03:22:43;3.10;99.90
22132;DHT22;11232;51.748;19.390;2023-12-22T03:25:09;5.20;99.90
22132;DHT22;11232;51.748;19.390;2023-12-22T03:27:34;4.00;99.90
22132;DHT22;11232;51.748;19.390;2023-12-22T03:30:00;3.30;99.90
22132;DHT22;11232;51.748;19.390;2023-12-22T03:32:27;5.00;99.90
22132;DHT22;11232;51.748;19.390;2023-12-22T03:34:52;4.20;99.90
22132;DHT22;11232;51.748;19.390;2023-12-22T03:37:18;4.00;99.90
22132;DHT22;11232;51.748;19.390;2023-12-22T03:39:44;5.50;99.90
22132;DHT22;11232;51.748;19.390;2023-12-22T03:42:09;3.50;99.90
22132;DHT22;11232;51.748;19.390;2023-12-22T03:44:35;4.00;99.90
22132;DHT22;11232;51.748;19.390;2023-12-22T03:47:01;3.50;99.90
22132;DHT22;11232;51.748;19.390;2023-12-22T03:49:26;4.90;99.90
22132;DHT22;11232;51.748;19.390;2023-12-22T03:51:52;4.20;99.90
22132;DHT22;11232;51.748;19.390;2023-12-22T03:54:17;3.60;99.90
22132;DHT22;11232;51.748;19.390;2023-12-22T03:56:43;3.80;99.90
22132;DHT22;11232;51.748;19.390;2023-12-22T03:59:09;5.00;99.90
22132;DHT22;11232;51.748;19.390;2023-12-22T04:01:34;4.50;99.90
22132;DHT22;11232;51.748;19.390;2023-12-22T04:04:00;3.80;99.90
22132;DHT22;11232;51.748;19.390;2023-12-22T04:06:25;3.90;99.90
22132;DHT22;11232;51.748;19.390;2023-12-22T04:08:52;4.00;99.90
22132;DHT22;11232;51.748;19.390;2023-12-22T04:11:17;3.80;99.90
22132;DHT22;11232;51.748;19.390;2023-12-22T04:13:43;4.60;99.90
22132;DHT22;11232;51.748;19.390;2023-12-22T04:16:08;5.20;99.90
22132;DHT22;11232;51.748;19.390;2023-12-22T04:18:34;4.10;99.90
22132;DHT22;11232;51.748;19.390;2023-12-22T04:21:00;4.10;99.90
22132;DHT22;11232;51.748;19.390;2023-12-22T04:23:25;4.00;99.90
22132;DHT22;11232;51.748;19.390;2023-12-22T04:25:51;3.80;99.90
22132;DHT22;11232;51.748;19.390;2023-12-22T04:28:17;3.60;99.90
22132;DHT22;11232;51.748;19.390;2023-12-22T04:30:42;3.40;99.90
22132;DHT22;11232;51.748;19.390;2023-12-22T04:33:08;3.60;99.90
22132;DHT22;11232;51.748;19.390;2023-12-22T04:35:33;3.50;99.90
22132;DHT22;11232;51.748;19.390;2023-12-22T04:37:59;3.40;99.90
22132;DHT22;11232;51.748;19.390;2023-12-22T04:40:25;3.20;99.90
22132;DHT22;11232;51.748;19.390;2023-12-22T04:42:50;3.40;99.90
22132;DHT22;11232;51.748;19.390;2023-12-22T04:45:16;4.00;99.90
22132;DHT22;11232;51.748;19.390;2023-12-22T04:47:42;6.50;99.90
22132;DHT22;11232;51.748;19.390;2023-12-22T04:50:08;4.40;99.90
22132;DHT22;11232;51.748;19.390;2023-12-22T04:52:34;4.10;99.90
22132;DHT22;11232;51.748;19.390;2023-12-22T04:54:59;4.60;99.90
22132;DHT22;11232;51.748;19.390;2023-12-22T04:57:25;3.10;99.90
22132;DHT22;11232;51.748;19.390;2023-12-22T04:59:50;3.10;99.90
22132;DHT22;11232;51.748;19.390;2023-12-22T05:02:16;2.60;99.90
22132;DHT22;11232;51.748;19.390;2023-12-22T05:04:41;3.30;99.90
22132;DHT22;11232;51.748;19.390;2023-12-22T05:07:07;3.00;99.90
22132;DHT22;11232;51.748;19.390;2023-12-22T05:09:36;3.50;99.90
22132;DHT22;11232;51.748;19.390;2023-12-22T05:12:04;3.30;99.90
22132;DHT22;11232;51.748;19.390;2023-12-22T05:14:30;3.40;99.90
22132;DHT22;11232;51.748;19.390;2023-12-22T05:16:56;2.90;99.90
22132;DHT22;11232;51.748;19.390;2023-12-22T05:19:22;3.30;99.90
22132;DHT22;11232;51.748;19.390;2023-12-22T05:21:47;5.00;99.90
22132;DHT22;11232;51.748;19.390;2023-12-22T05:24:15;3.50;99.90
22132;DHT22;11232;51.748;19.390;2023-12-22T05:26:40;3.60;99.90
22132;DHT22;11232;51.748;19.390;2023-12-22T05:29:06;2.90;99.90
22132;DHT22;11232;51.748;19.390;2023-12-22T05:31:33;3.90;99.90
22132;DHT22;11232;51.748;19.390;2023-12-22T05:33:59;3.10;99.90
22132;DHT22;11232;51.748;19.390;2023-12-22T05:36:25;2.90;99.90
22132;DHT22;11232;51.748;19.390;2023-12-22T05:38:51;3.60;99.90
22132;DHT22;11232;51.748;19.390;2023-12-22T05:41:16;3.10;99.90
22132;DHT22;11232;51.748;19.390;2023-12-22T05:43:42;3.30;99.90
22132;DHT22;11232;51.748;19.390;2023-12-22T05:46:08;2.20;99.90
22132;DHT22;11232;51.748;19.390;2023-12-22T05:48:35;3.00;99.90
22132;DHT22;11232;51.748;19.390;2023-12-22T05:51:01;2.50;99.90
22132;DHT22;11232;51.748;19.390;2023-12-22T05:53:28;3.20;99.90
22132;DHT22;11232;51.748;19.390;2023-12-22T05:55:54;2.70;99.90
22132;DHT22;11232;51.748;19.390;2023-12-22T05:58:20;3.30;99.90
22132;DHT22;11232;51.748;19.390;2023-12-22T06:00:45;3.80;99.90
22132;DHT22;11232;51.748;19.390;2023-12-22T06:03:11;3.10;99.90
22132;DHT22;11232;51.748;19.390;2023-12-22T06:05:36;3.10;99.90
22132;DHT22;11232;51.748;19.390;2023-12-22T06:08:02;3.00;99.90
22132;DHT22;11232;51.748;19.390;2023-12-22T06:10:28;3.10;99.90
22132;DHT22;11232;51.748;19.390;2023-12-22T06:12:53;3.00;99.90
22132;DHT22;11232;51.748;19.390;2023-12-22T06:15:19;4.90;99.90
22132;DHT22;11232;51.748;19.390;2023-12-22T06:17:44;2.90;99.90
22132;DHT22;11232;51.748;19.390;2023-12-22T06:20:10;3.00;99.90
22132;DHT22;11232;51.748;19.390;2023-12-22T06:22:36;2.20;99.90
22132;DHT22;11232;51.748;19.390;2023-12-22T06:25:01;2.70;99.90
22132;DHT22;11232;51.748;19.390;2023-12-22T06:27:35;2.90;99.90
22132;DHT22;11232;51.748;19.390;2023-12-22T06:30:04;3.00;99.90
22132;DHT22;11232;51.748;19.390;2023-12-22T06:32:30;3.00;99.90
22132;DHT22;11232;51.748;19.390;2023-12-22T06:34:56;2.90;99.90
22132;DHT22;11232;51.748;19.390;2023-12-22T06:37:21;3.80;99.90
22132;DHT22;11232;51.748;19.390;2023-12-22T06:39:47;2.30;99.90
22132;DHT22;11232;51.748;19.390;2023-12-22T06:42:12;2.20;99.90
22132;DHT22;11232;51.748;19.390;2023-12-22T06:44:41;1.90;99.90
22132;DHT22;11232;51.748;19.390;2023-12-22T06:47:08;2.30;99.90
22132;DHT22;11232;51.748;19.390;2023-12-22T06:49:33;2.10;99.90
22132;DHT22;11232;51.748;19.390;2023-12-22T06:51:59;3.30;99.90
22132;DHT22;11232;51.748;19.390;2023-12-22T06:54:25;3.30;99.90
22132;DHT22;11232;51.748;19.390;2023-12-22T06:56:50;2.60;99.90
22132;DHT22;11232;51.748;19.390;2023-12-22T06:59:16;2.70;99.90
22132;DHT22;11232;51.748;19.390;2023-12-22T07:01:42;3.60;99.90
22132;DHT22;11232;51.748;19.390;2023-12-22T07:04:07;2.70;99.90
22132;DHT22;11232;51.748;19.390;2023-12-22T07:06:34;2.10;99.90
22132;DHT22;11232;51.748;19.390;2023-12-22T07:11:55;2.00;99.90
22132;DHT22;11232;51.748;19.390;2023-12-22T07:14:21;2.30;99.90
22132;DHT22;11232;51.748;19.390;2023-12-22T07:16:47;2.10;99.90
22132;DHT22;11232;51.748;19.390;2023-12-22T07:19:12;3.30;99.90
22132;DHT22;11232;51.748;19.390;2023-12-22T07:21:39;2.60;99.90
22132;DHT22;11232;51.748;19.390;2023-12-22T07:24:05;2.50;99.90
22132;DHT22;11232;51.748;19.390;2023-12-22T07:26:31;2.90;99.90
22132;DHT22;11232;51.748;19.390;2023-12-22T07:28:56;2.70;99.90
22132;DHT22;11232;51.748;19.390;2023-12-22T07:31:22;2.90;99.90
22132;DHT22;11232;51.748;19.390;2023-12-22T07:33:48;4.90;99.90
22132;DHT22;11232;51.748;19.390;2023-12-22T07:36:14;3.00;99.90
22132;DHT22;11232;51.748;19.390;2023-12-22T07:38:39;4.00;99.90
22132;DHT22;11232;51.748;19.390;2023-12-22T07:41:05;3.60;99.90
22132;DHT22;11232;51.748;19.390;2023-12-22T07:45:57;5.10;99.90
22132;DHT22;11232;51.748;19.390;2023-12-22T07:48:22;7.60;99.90
22132;DHT22;11232;51.748;19.390;2023-12-22T07:50:49;4.40;99.90
22132;DHT22;11232;51.748;19.390;2023-12-22T07:53:15;5.10;99.90
22132;DHT22;11232;51.748;19.390;2023-12-22T07:55:40;7.70;99.90
22132;DHT22;11232;51.748;19.390;2023-12-22T07:58:06;6.10;99.90
22132;DHT22;11232;51.748;19.390;2023-12-22T08:00:32;8.40;99.90
22132;DHT22;11232;51.748;19.390;2023-12-22T08:02:58;6.40;99.90
22132;DHT22;11232;51.748;19.390;2023-12-22T08:05:24;7.50;99.90
22132;DHT22;11232;51.748;19.390;2023-12-22T08:07:50;7.20;99.90
22132;DHT22;11232;51.748;19.390;2023-12-22T08:10:15;8.80;99.90
22132;DHT22;11232;51.748;19.390;2023-12-22T08:12:41;7.40;99.90
22132;DHT22;11232;51.748;19.390;2023-12-22T08:15:08;7.30;99.90
22132;DHT22;11232;51.748;19.390;2023-12-22T08:17:36;8.20;99.90
22132;DHT22;11232;51.748;19.390;2023-12-22T08:20:03;9.20;99.90
22132;DHT22;11232;51.748;19.390;2023-12-22T08:22:29;8.30;99.90
22132;DHT22;11232;51.748;19.390;2023-12-22T08:24:56;7.40;99.90
22132;DHT22;11232;51.748;19.390;2023-12-22T08:27:21;8.00;99.90
22132;DHT22;11232;51.748;19.390;2023-12-22T08:29:47;5.70;99.90
22132;DHT22;11232;51.748;19.390;2023-12-22T08:32:12;7.40;99.90
22132;DHT22;11232;51.748;19.390;2023-12-22T08:34:38;4.30;99.90
22132;DHT22;11232;51.748;19.390;2023-12-22T08:37:03;5.10;99.90
22132;DHT22;11232;51.748;19.390;2023-12-22T08:39:29;6.50;99.90
22132;DHT22;11232;51.748;19.390;2023-12-22T08:41:55;8.70;99.90
22132;DHT22;11232;51.748;19.390;2023-12-22T08:44:20;8.70;99.90
22132;DHT22;11232;51.748;19.390;2023-12-22T08:46:46;6.90;99.90
22132;DHT22;11232;51.748;19.390;2023-12-22T08:49:11;9.20;99.90
22132;DHT22;11232;51.748;19.390;2023-12-22T08:51:37;8.20;99.90
22132;DHT22;11232;51.748;19.390;2023-12-22T08:54:03;8.90;99.90
22132;DHT22;11232;51.748;19.390;2023-12-22T08:56:29;5.90;99.90
22132;DHT22;11232;51.748;19.390;2023-12-22T08:58:55;6.90;99.90
22132;DHT22;11232;51.748;19.390;2023-12-22T09:01:24;4.90;99.90
22132;DHT22;11232;51.748;19.390;2023-12-22T09:03:50;3.60;99.90
22132;DHT22;11232;51.748;19.390;2023-12-22T09:06:16;4.70;99.90
22132;DHT22;11232;51.748;19.390;2023-12-22T09:08:42;3.70;99.90
22132;DHT22;11232;51.748;19.390;2023-12-22T09:11:10;5.90;99.90
22132;DHT22;11232;51.748;19.390;2023-12-22T09:13:36;3.40;99.90
22132;DHT22;11232;51.748;19.390;2023-12-22T09:18:52;4.10;99.90
22132;DHT22;11232;51.748;19.390;2023-12-22T09:21:18;8.50;99.90
22132;DHT22;11232;51.748;19.390;2023-12-22T09:23:44;6.00;99.90
22132;DHT22;11232;51.748;19.390;2023-12-22T09:26:15;8.10;99.90
22132;DHT22;11232;51.748;19.390;2023-12-22T09:28:41;6.50;99.90
22132;DHT22;11232;51.748;19.390;2023-12-22T09:31:08;6.00;99.90
22132;DHT22;11232;51.748;19.390;2023-12-22T09:33:34;5.00;99.90
22132;DHT22;11232;51.748;19.390;2023-12-22T09:35:59;6.40;99.90
22132;DHT22;11232;51.748;19.390;2023-12-22T09:38:25;5.40;99.90
22132;DHT22;11232;51.748;19.390;2023-12-22T09:40:51;2.60;99.90
22132;DHT22;11232;51.748;19.390;2023-12-22T09:43:19;2.80;99.90
22132;DHT22;11232;51.748;19.390;2023-12-22T09:45:46;3.60;99.90
22132;DHT22;11232;51.748;19.390;2023-12-22T09:48:13;2.90;99.90
22132;DHT22;11232;51.748;19.390;2023-12-22T09:50:43;3.00;99.90
22132;DHT22;11232;51.748;19.390;2023-12-22T09:53:11;2.70;99.90
22132;DHT22;11232;51.748;19.390;2023-12-22T09:55:38;2.30;99.90
22132;DHT22;11232;51.748;19.390;2023-12-22T09:58:04;3.80;99.90
22132;DHT22;11232;51.748;19.390;2023-12-22T10:00:31;4.40;99.90
22132;DHT22;11232;51.748;19.390;2023-12-22T10:02:58;3.10;99.90
22132;DHT22;11232;51.748;19.390;2023-12-22T10:05:23;3.60;99.90
22132;DHT22;11232;51.748;19.390;2023-12-22T10:07:49;2.90;99.90
22132;DHT22;11232;51.748;19.390;2023-12-22T10:10:15;4.00;99.90
22132;DHT22;11232;51.748;19.390;2023-12-22T10:12:44;2.90;99.90
22132;DHT22;11232;51.748;19.390;2023-12-22T10:15:12;3.10;99.90
22132;DHT22;11232;51.748;19.390;2023-12-22T10:17:39;3.90;99.90
22132;DHT22;11232;51.748;19.390;2023-12-22T10:20:05;4.90;99.90
22132;DHT22;11232;51.748;19.390;2023-12-22T10:22:31;4.20;99.90
22132;DHT22;11232;51.748;19.390;2023-12-22T10:24:56;5.50;99.90
22132;DHT22;11232;51.748;19.390;2023-12-22T10:27:22;5.50;99.90
22132;DHT22;11232;51.748;19.390;2023-12-22T10:29:54;4.40;99.90
22132;DHT22;11232;51.748;19.390;2023-12-22T10:32:20;4.50;99.90
22132;DHT22;11232;51.748;19.390;2023-12-22T10:34:47;5.40;99.90
22132;DHT22;11232;51.748;19.390;2023-12-22T10:37:12;5.10;99.90
22132;DHT22;11232;51.748;19.390;2023-12-22T10:39:38;3.10;99.90
22132;DHT22;11232;51.748;19.390;2023-12-22T10:42:04;2.90;99.90
22132;DHT22;11232;51.748;19.390;2023-12-22T10:44:30;3.10;99.90
22132;DHT22;11232;51.748;19.390;2023-12-22T10:46:56;1.90;99.90
22132;DHT22;11232;51.748;19.390;2023-12-22T10:49:23;2.30;99.90
22132;DHT22;11232;51.748;19.390;2023-12-22T10:51:50;1.80;99.90
22132;DHT22;11232;51.748;19.390;2023-12-22T10:54:19;3.00;99.90
22132;DHT22;11232;51.748;19.390;2023-12-22T10:56:46;3.40;99.90
22132;DHT22;11232;51.748;19.390;2023-12-22T10:59:12;1.80;99.90
22132;DHT22;11232;51.748;19.390;2023-12-22T11:01:38;1.60;99.90
22132;DHT22;11232;51.748;19.390;2023-12-22T11:04:06;1.00;99.90
22132;DHT22;11232;51.748;19.390;2023-12-22T11:06:36;1.90;99.90
22132;DHT22;11232;51.748;19.390;2023-12-22T11:09:09;1.50;99.90
22132;DHT22;11232;51.748;19.390;2023-12-22T11:11:39;1.60;99.90
22132;DHT22;11232;51.748;19.390;2023-12-22T11:14:06;2.10;99.90
22132;DHT22;11232;51.748;19.390;2023-12-22T11:16:33;2.80;99.90
22132;DHT22;11232;51.748;19.390;2023-12-22T11:19:00;3.00;99.90
22132;DHT22;11232;51.748;19.390;2023-12-22T11:21:26;3.70;99.90
22132;DHT22;11232;51.748;19.390;2023-12-22T11:23:53;4.30;99.90
22132;DHT22;11232;51.748;19.390;2023-12-22T11:26:20;3.50;99.90
22132;DHT22;11232;51.748;19.390;2023-12-22T11:28:47;2.00;99.90
22132;DHT22;11232;51.748;19.390;2023-12-22T11:31:14;2.70;99.90
22132;DHT22;11232;51.748;19.390;2023-12-22T11:33:44;3.20;99.90
22132;DHT22;11232;51.748;19.390;2023-12-22T11:36:14;2.80;99.90
22132;DHT22;11232;51.748;19.390;2023-12-22T11:38:49;2.80;99.90
22132;DHT22;11232;51.748;19.390;2023-12-22T11:41:25;4.20;99.90
22132;DHT22;11232;51.748;19.390;2023-12-22T11:43:53;3.00;99.90
22132;DHT22;11232;51.748;19.390;2023-12-22T11:46:19;2.60;99.90
22132;DHT22;11232;51.748;19.390;2023-12-22T11:48:51;3.00;99.90
22132;DHT22;11232;51.748;19.390;2023-12-22T11:51:18;2.80;99.90
22132;DHT22;11232;51.748;19.390;2023-12-22T11:53:44;2.30;99.90
22132;DHT22;11232;51.748;19.390;2023-12-22T11:56:11;2.30;99.90
22132;DHT22;11232;51.748;19.390;2023-12-22T12:01:12;2.90;99.90
22132;DHT22;11232;51.748;19.390;2023-12-22T12:03:50;2.80;99.90
22132;DHT22;11232;51.748;19.390;2023-12-22T12:08:43;2.80;99.90
22132;DHT22;11232;51.748;19.390;2023-12-22T12:11:09;4.10;99.90
22132;DHT22;11232;51.748;19.390;2023-12-22T12:13:44;2.70;99.90
22132;DHT22;11232;51.748;19.390;2023-12-22T12:16:19;2.70;99.90
22132;DHT22;11232;51.748;19.390;2023-12-22T12:18:47;2.60;99.90
22132;DHT22;11232;51.748;19.390;2023-12-22T12:21:13;2.30;99.90
22132;DHT22;11232;51.748;19.390;2023-12-22T12:23:38;2.50;99.90
22132;DHT22;11232;51.748;19.390;2023-12-22T12:26:06;2.40;99.90
22132;DHT22;11232;51.748;19.390;2023-12-22T12:28:34;2.60;99.90
22132;DHT22;11232;51.748;19.390;2023-12-22T12:31:04;2.00;99.90
22132;DHT22;11232;51.748;19.390;2023-12-22T12:33:30;2.50;99.90
22132;DHT22;11232;51.748;19.390;2023-12-22T12:35:58;1.70;99.90
22132;DHT22;11232;51.748;19.390;2023-12-22T12:41:15;2.10;99.90
22132;DHT22;11232;51.748;19.390;2023-12-22T12:43:42;2.90;99.90
22132;DHT22;11232;51.748;19.390;2023-12-22T12:46:11;1.80;99.90
22132;DHT22;11232;51.748;19.390;2023-12-22T12:48:37;1.60;99.90
22132;DHT22;11232;51.748;19.390;2023-12-22T12:51:06;1.60;99.90
22132;DHT22;11232;51.748;19.390;2023-12-22T12:53:33;2.10;99.90
22132;DHT22;11232;51.748;19.390;2023-12-22T12:55:59;2.10;99.90
22132;DHT22;11232;51.748;19.390;2023-12-22T12:58:29;3.00;99.90
22132;DHT22;11232;51.748;19.390;2023-12-22T13:01:10;2.20;99.90
22132;DHT22;11232;51.748;19.390;2023-12-22T13:04:14;2.30;99.90
22132;DHT22;11232;51.748;19.390;2023-12-22T13:06:50;2.40;99.90
22132;DHT22;11232;51.748;19.390;2023-12-22T13:09:17;2.60;99.90
22132;DHT22;11232;51.748;19.390;2023-12-22T13:11:44;2.50;99.90
22132;DHT22;11232;51.748;19.390;2023-12-22T13:14:12;2.40;99.90
22132;DHT22;11232;51.748;19.390;2023-12-22T13:16:39;2.70;99.90
22132;DHT22;11232;51.748;19.390;2023-12-22T13:19:07;2.60;99.90
22132;DHT22;11232;51.748;19.390;2023-12-22T13:21:53;2.80;99.90
22132;DHT22;11232;51.748;19.390;2023-12-22T13:24:39;2.90;99.90
22132;DHT22;11232;51.748;19.390;2023-12-22T13:27:10;2.70;99.90
22132;DHT22;11232;51.748;19.390;2023-12-22T13:29:45;2.80;99.90
22132;DHT22;11232;51.748;19.390;2023-12-22T13:32:21;2.80;99.90
22132;DHT22;11232;51.748;19.390;2023-12-22T13:34:55;2.20;99.90
22132;DHT22;11232;51.748;19.390;2023-12-22T13:37:22;4.20;99.90
22132;DHT22;11232;51.748;19.390;2023-12-22T13:39:50;3.70;99.90
22132;DHT22;11232;51.748;19.390;2023-12-22T13:42:20;2.20;99.90
22132;DHT22;11232;51.748;19.390;2023-12-22T13:44:48;2.80;99.90
22132;DHT22;11232;51.748;19.390;2023-12-22T13:47:16;3.40;99.90
22132;DHT22;11232;51.748;19.390;2023-12-22T13:49:42;3.30;99.90
22132;DHT22;11232;51.748;19.390;2023-12-22T13:52:23;2.60;99.90
22132;DHT22;11232;51.748;19.390;2023-12-22T13:54:49;4.30;99.90
22132;DHT22;11232;51.748;19.390;2023-12-22T13:57:22;5.80;99.90
22132;DHT22;11232;51.748;19.390;2023-12-22T13:59:47;2.50;99.90
22132;DHT22;11232;51.748;19.390;2023-12-22T14:02:13;4.50;99.90
22132;DHT22;11232;51.748;19.390;2023-12-22T14:04:49;3.60;99.90
22132;DHT22;11232;51.748;19.390;2023-12-22T14:07:15;3.20;99.90
22132;DHT22;11232;51.748;19.390;2023-12-22T14:09:41;3.10;99.90
22132;DHT22;11232;51.748;19.390;2023-12-22T14:12:06;2.80;99.90
22132;DHT22;11232;51.748;19.390;2023-12-22T14:14:32;2.80;99.90
22132;DHT22;11232;51.748;19.390;2023-12-22T14:16:58;2.20;99.90
22132;DHT22;11232;51.748;19.390;2023-12-22T14:19:23;2.30;99.90
22132;DHT22;11232;51.748;19.390;2023-12-22T14:21:49;2.40;99.90
22132;DHT22;11232;51.748;19.390;2023-12-22T14:24:14;2.60;99.90
22132;DHT22;11232;51.748;19.390;2023-12-22T14:26:56;2.80;99.90
22132;DHT22;11232;51.748;19.390;2023-12-22T14:29:22;2.40;99.90
22132;DHT22;11232;51.748;19.390;2023-12-22T14:31:51;2.90;99.90
22132;DHT22;11232;51.748;19.390;2023-12-22T14:34:17;3.20;99.90
22132;DHT22;11232;51.748;19.390;2023-12-22T14:36:44;2.90;99.90
22132;DHT22;11232;51.748;19.390;2023-12-22T14:39:10;3.00;99.90
22132;DHT22;11232;51.748;19.390;2023-12-22T14:41:38;3.20;99.90
22132;DHT22;11232;51.748;19.390;2023-12-22T14:44:04;2.80;99.90
22132;DHT22;11232;51.748;19.390;2023-12-22T14:46:30;3.00;99.90
22132;DHT22;11232;51.748;19.390;2023-12-22T14:48:56;4.80;99.90
22132;DHT22;11232;51.748;19.390;2023-12-22T14:51:21;2.70;99.90
22132;DHT22;11232;51.748;19.390;2023-12-22T14:53:47;2.70;99.90
22132;DHT22;11232;51.748;19.390;2023-12-22T14:56:13;3.10;99.90
22132;DHT22;11232;51.748;19.390;2023-12-22T14:58:38;3.00;99.90
22132;DHT22;11232;51.748;19.390;2023-12-22T15:03:30;3.20;99.90
22132;DHT22;11232;51.748;19.390;2023-12-22T15:05:55;4.10;99.90
22132;DHT22;11232;51.748;19.390;2023-12-22T15:08:21;3.10;99.90
22132;DHT22;11232;51.748;19.390;2023-12-22T15:10:46;2.20;99.90
22132;DHT22;11232;51.748;19.390;2023-12-22T15:13:12;3.40;99.90
22132;DHT22;11232;51.748;19.390;2023-12-22T15:15:37;3.50;99.90
22132;DHT22;11232;51.748;19.390;2023-12-22T15:18:03;2.70;99.90
22132;DHT22;11232;51.748;19.390;2023-12-22T15:20:29;2.70;99.90
22132;DHT22;11232;51.748;19.390;2023-12-22T15:22:55;3.10;99.90
22132;DHT22;11232;51.748;19.390;2023-12-22T15:25:20;4.80;99.90
22132;DHT22;11232;51.748;19.390;2023-12-22T15:27:46;2.60;99.90
22132;DHT22;11232;51.748;19.390;2023-12-22T15:30:12;2.30;99.90
22132;DHT22;11232;51.748;19.390;2023-12-22T15:32:38;2.80;99.90
22132;DHT22;11232;51.748;19.390;2023-12-22T15:35:05;2.70;99.90
22132;DHT22;11232;51.748;19.390;2023-12-22T15:37:30;2.90;99.90
22132;DHT22;11232;51.748;19.390;2023-12-22T15:39:56;2.50;99.90
22132;DHT22;11232;51.748;19.390;2023-12-22T15:42:22;3.00;99.90
22132;DHT22;11232;51.748;19.390;2023-12-22T15:44:47;3.10;99.90
22132;DHT22;11232;51.748;19.390;2023-12-22T15:47:13;2.50;99.90